Terminal Aerodrome Forecast
Issued by NWS

Home | Current Version | Previous Version | Graphics & Text | Print | Product List | Glossary On
Versions: 1 2 3 4 5 6 7 8 9 10 11 12 13 14
000
FTUS43 KICT 151700
TAFCNU
TAF
KCNU 151734Z 1518/1618 24012KT P6SM SCT035 SCT120
     FM152100 01013KT P6SM VCTS SCT040CB BKN080
     FM160100 03011KT P6SM VCSH OVC025
     FM160700 06009KT P6SM BKN025=

USA.gov is the U.S. government's official web portal to all federal, state and local government web resources and services.